Time;durP1;ratioP1;P1;durP2;ratioP2;P2;SDS_P1;SDS_P2;PMS_P1;PMS_P2;Temp;Humidity;BMP_temperature;BMP_pressure;BME280_temperature;BME280_humidity;BME280_pressure;Samples;Min_cycle;Max_cycle;Signal;HPM_P1;HPM_P2
2023/03/19 00:02:20;;;;;;;15.87;14.27;;;;;;;;;;5094340;28;20475;-62
2023/03/19 00:04:47;;;;;;;16.60;14.57;;;;;;;;;;5095859;28;20488;-62
2023/03/19 00:07:13;;;;;;;14.80;13.03;;;;;;;;;;5094497;28;20536;-63
2023/03/19 00:09:40;;;;;;;13.20;11.80;;;;;;;;;;5092402;28;20935;-63
2023/03/19 00:12:07;;;;;;;14.50;13.00;;;;;;;;;;5089020;28;20479;-61
2023/03/19 00:14:42;;;;;;;14.37;12.87;;;;;;;;;;5089169;28;20539;-63
2023/03/19 00:17:08;;;;;;;19.60;14.87;;;;;;;;;;5098150;28;20562;-62
2023/03/19 00:19:34;;;;;;;14.47;12.97;;;;;;;;;;5099717;28;20940;-62
2023/03/19 00:22:01;;;;;;;13.50;12.20;;;;;;;;;;5091282;28;20475;-62
2023/03/19 00:24:28;;;;;;;14.53;11.43;;;;;;;;;;5098925;28;20586;-61
2023/03/19 00:26:54;;;;;;;13.90;12.50;;;;;;;;;;5098717;28;20495;-61
2023/03/19 00:29:22;;;;;;;13.60;12.20;;;;;;;;;;5078949;28;20808;-62
2023/03/19 00:31:51;;;;;;;16.67;12.43;;;;;;;;;;5096883;28;20508;-62
2023/03/19 00:34:18;;;;;;;14.10;12.10;;;;;;;;;;5097572;28;20455;-62
2023/03/19 00:36:45;;;;;;;15.67;12.17;;;;;;;;;;5094725;28;20479;-63
2023/03/19 00:39:11;;;;;;;17.50;12.90;;;;;;;;;;5096526;28;20455;-62
2023/03/19 00:41:38;;;;;;;14.50;12.80;;;;;;;;;;5095328;28;20478;-61
2023/03/19 00:44:05;;;;;;;15.57;13.87;;;;;;;;;;5094499;28;20494;-62
2023/03/19 00:46:32;;;;;;;13.47;12.03;;;;;;;;;;5088768;28;20850;-62
2023/03/19 00:49:00;;;;;;;15.53;13.87;;;;;;;;;;5098463;28;20470;-61
2023/03/19 00:51:26;;;;;;;14.10;12.60;;;;;;;;;;5098397;28;20479;-61
2023/03/19 00:53:53;;;;;;;15.80;13.13;;;;;;;;;;5093923;28;20459;-63
2023/03/19 00:56:20;;;;;;;16.50;12.10;;;;;;;;;;5097263;28;20472;-62
2023/03/19 00:58:47;;;;;;;13.13;11.53;;;;;;;;;;5099500;28;20471;-63
2023/03/19 01:01:15;;;;;;;14.07;12.23;;;;;;;;;;5090021;28;21009;-63
2023/03/19 01:03:41;;;;;;;13.40;11.70;;;;;;;;;;5100637;28;21008;-63
2023/03/19 01:06:10;;;;;;;14.30;12.70;;;;;;;;;;5100554;28;20575;-60
2023/03/19 01:08:37;;;;;;;15.63;13.20;;;;;;;;;;5098652;28;20499;-61
2023/03/19 01:11:07;;;;;;;16.00;12.53;;;;;;;;;;5087001;28;20678;-62
2023/03/19 01:13:34;;;;;;;14.40;12.90;;;;;;;;;;5089306;28;20461;-63
2023/03/19 01:16:00;;;;;;;15.40;13.80;;;;;;;;;;5094299;28;20475;-62
2023/03/19 01:18:27;;;;;;;15.73;13.10;;;;;;;;;;5090483;28;20972;-60
2023/03/19 01:20:54;;;;;;;14.40;12.77;;;;;;;;;;5101995;28;20498;-63
2023/03/19 01:23:22;;;;;;;13.70;12.30;;;;;;;;;;5095019;28;20550;-62
2023/03/19 01:25:48;;;;;;;16.00;13.17;;;;;;;;;;5095023;28;20475;-61
2023/03/19 01:28:15;;;;;;;15.80;14.10;;;;;;;;;;5098435;28;20476;-67
2023/03/19 01:30:41;;;;;;;16.37;12.80;;;;;;;;;;5099701;28;20463;-61
2023/03/19 01:33:08;;;;;;;16.40;14.13;;;;;;;;;;5101300;28;20467;-62
2023/03/19 01:35:34;;;;;;;15.37;13.87;;;;;;;;;;5099208;28;20463;-61
2023/03/19 01:38:01;;;;;;;15.53;13.37;;;;;;;;;;5096046;28;20452;-59
2023/03/19 01:40:30;;;;;;;14.20;12.47;;;;;;;;;;5098434;28;20471;-61
2023/03/19 01:43:11;;;;;;;15.57;13.70;;;;;;;;;;5100622;28;20452;-61
2023/03/19 01:45:39;;;;;;;13.03;11.70;;;;;;;;;;5098735;28;20495;-61
2023/03/19 01:48:06;;;;;;;16.37;13.23;;;;;;;;;;5097224;28;20458;-62
2023/03/19 01:50:37;;;;;;;15.57;13.47;;;;;;;;;;5097332;28;20479;-60
2023/03/19 01:53:03;;;;;;;14.10;12.60;;;;;;;;;;5098043;28;20443;-60
2023/03/19 01:55:31;;;;;;;14.23;12.10;;;;;;;;;;5093260;28;20470;-62
2023/03/19 01:57:58;;;;;;;15.57;12.73;;;;;;;;;;5095922;28;20764;-62
2023/03/19 02:00:25;;;;;;;14.27;12.77;;;;;;;;;;5095311;28;20512;-62
2023/03/19 02:02:53;;;;;;;14.47;12.53;;;;;;;;;;5095768;28;20518;-59
2023/03/19 02:05:24;;;;;;;12.57;11.13;;;;;;;;;;5092067;28;20484;-60
2023/03/19 02:07:52;;;;;;;12.37;10.50;;;;;;;;;;5092506;28;21057;-61
2023/03/19 02:10:19;;;;;;;12.00;10.80;;;;;;;;;;5094530;28;20501;-61
2023/03/19 02:12:47;;;;;;;12.93;11.60;;;;;;;;;;5098087;28;20950;-62
2023/03/19 02:15:14;;;;;;;14.50;12.20;;;;;;;;;;5090449;28;20491;-61
2023/03/19 02:17:42;;;;;;;11.73;10.53;;;;;;;;;;5093138;28;20516;-61
2023/03/19 02:20:13;;;;;;;13.53;12.13;;;;;;;;;;5094564;28;20463;-62
2023/03/19 02:22:41;;;;;;;13.77;12.37;;;;;;;;;;5090498;28;20645;-59
2023/03/19 02:25:11;;;;;;;16.00;12.97;;;;;;;;;;5096087;28;20515;-62
2023/03/19 02:27:39;;;;;;;16.00;12.50;;;;;;;;;;5093520;28;20509;-62
2023/03/19 02:30:17;;;;;;;12.40;11.10;;;;;;;;;;5089248;28;20456;-62
2023/03/19 02:32:44;;;;;;;13.30;11.90;;;;;;;;;;5090623;28;20475;-61
2023/03/19 02:35:10;;;;;;;13.17;11.77;;;;;;;;;;5088023;28;20524;-62
2023/03/19 02:37:37;;;;;;;14.17;11.30;;;;;;;;;;5092736;28;20590;-59
2023/03/19 02:40:06;;;;;;;14.40;11.83;;;;;;;;;;5098834;28;20504;-60
2023/03/19 02:42:34;;;;;;;13.70;12.30;;;;;;;;;;5095588;28;20534;-59
2023/03/19 02:45:02;;;;;;;14.73;13.23;;;;;;;;;;5095153;28;20490;-61
2023/03/19 02:47:28;;;;;;;13.50;12.23;;;;;;;;;;5095128;28;20475;-61
2023/03/19 02:49:55;;;;;;;14.20;12.80;;;;;;;;;;5090802;28;20467;-62
2023/03/19 02:52:22;;;;;;;15.20;11.73;;;;;;;;;;5096258;28;20498;-61
2023/03/19 02:54:48;;;;;;;14.30;12.80;;;;;;;;;;5096975;28;20536;-61
2023/03/19 02:57:15;;;;;;;13.67;12.20;;;;;;;;;;5099897;28;20533;-61
2023/03/19 02:59:41;;;;;;;12.10;9.67;;;;;;;;;;5095815;28;20479;-60
2023/03/19 03:02:10;;;;;;;11.00;8.47;;;;;;;;;;5094385;28;20471;-60
2023/03/19 03:04:37;;;;;;;15.10;9.20;;;;;;;;;;5100208;28;20533;-61
2023/03/19 03:07:03;;;;;;;12.60;10.67;;;;;;;;;;5091455;28;20476;-62
2023/03/19 03:09:30;;;;;;;19.73;12.13;;;;;;;;;;5100454;28;20942;-62
2023/03/19 03:11:57;;;;;;;14.37;12.70;;;;;;;;;;5093024;28;20480;-61
2023/03/19 03:14:23;;;;;;;14.70;12.47;;;;;;;;;;5089331;28;20463;-60
2023/03/19 03:16:50;;;;;;;13.60;11.90;;;;;;;;;;5099378;28;20471;-60
2023/03/19 03:19:18;;;;;;;12.93;11.50;;;;;;;;;;5095021;28;20501;-62
2023/03/19 03:21:44;;;;;;;12.07;10.87;;;;;;;;;;5089120;28;21051;-61
2023/03/19 03:24:11;;;;;;;13.23;10.83;;;;;;;;;;5094513;28;20501;-61
2023/03/19 03:26:38;;;;;;;12.87;11.50;;;;;;;;;;5091668;28;20477;-62
2023/03/19 03:29:04;;;;;;;13.20;10.50;;;;;;;;;;5099607;28;20448;-61
2023/03/19 03:31:31;;;;;;;12.77;11.50;;;;;;;;;;5092544;28;20471;-60
2023/03/19 03:33:58;;;;;;;12.43;10.70;;;;;;;;;;5099291;28;20493;-60
2023/03/19 03:36:26;;;;;;;12.20;10.87;;;;;;;;;;5095560;28;20545;-60
2023/03/19 03:38:53;;;;;;;11.93;10.73;;;;;;;;;;5092284;28;20482;-61
2023/03/19 03:41:19;;;;;;;12.97;11.67;;;;;;;;;;5091917;28;20504;-60
2023/03/19 03:43:45;;;;;;;11.60;9.87;;;;;;;;;;5099025;28;20486;-61
2023/03/19 03:46:12;;;;;;;12.30;11.03;;;;;;;;;;5090177;28;20468;-59
2023/03/19 03:48:39;;;;;;;12.27;9.87;;;;;;;;;;5092871;28;20494;-61
2023/03/19 03:51:06;;;;;;;11.87;10.63;;;;;;;;;;5099795;28;20965;-62
2023/03/19 03:53:34;;;;;;;13.13;11.83;;;;;;;;;;5099156;28;20448;-62
2023/03/19 03:56:01;;;;;;;13.63;12.23;;;;;;;;;;5090950;28;20491;-65
2023/03/19 03:58:27;;;;;;;12.00;10.77;;;;;;;;;;5094216;28;20451;-58
2023/03/19 04:00:56;;;;;;;12.93;11.27;;;;;;;;;;5095630;28;20506;-60
2023/03/19 04:03:23;;;;;;;12.07;10.83;;;;;;;;;;5095258;28;20470;-61
2023/03/19 04:05:50;;;;;;;12.03;10.87;;;;;;;;;;5093625;28;20475;-60
2023/03/19 04:08:16;;;;;;;11.73;10.37;;;;;;;;;;5099583;28;20514;-59
2023/03/19 04:10:45;;;;;;;11.03;9.93;;;;;;;;;;5094103;28;20527;-62
2023/03/19 04:13:12;;;;;;;12.90;11.50;;;;;;;;;;5098137;28;20536;-61
2023/03/19 04:15:39;;;;;;;12.37;10.50;;;;;;;;;;5093311;28;20459;-61
2023/03/19 04:18:05;;;;;;;11.50;10.40;;;;;;;;;;5088957;28;20457;-59
2023/03/19 04:20:32;;;;;;;12.13;10.90;;;;;;;;;;5100215;28;20463;-58
2023/03/19 04:22:58;;;;;;;10.83;9.67;;;;;;;;;;5102935;28;20474;-58
2023/03/19 04:25:24;;;;;;;11.20;10.10;;;;;;;;;;5102376;28;20497;-60
2023/03/19 04:27:52;;;;;;;10.40;9.37;;;;;;;;;;5104018;28;20538;-61
2023/03/19 04:30:19;;;;;;;11.20;10.00;;;;;;;;;;5097631;28;20475;-58
2023/03/19 04:32:46;;;;;;;10.77;9.80;;;;;;;;;;5094773;28;21106;-61
2023/03/19 04:35:17;;;;;;;10.50;9.43;;;;;;;;;;5092312;28;20478;-61
2023/03/19 04:37:47;;;;;;;13.77;9.23;;;;;;;;;;5091031;28;20602;-62
2023/03/19 04:40:14;;;;;;;11.50;9.50;;;;;;;;;;5093950;28;20444;-60
2023/03/19 04:42:40;;;;;;;12.37;10.13;;;;;;;;;;5096617;28;20471;-59
2023/03/19 04:45:09;;;;;;;12.90;11.20;;;;;;;;;;5098951;28;20579;-59
2023/03/19 04:47:35;;;;;;;13.13;10.60;;;;;;;;;;5086411;28;20517;-61
2023/03/19 04:50:02;;;;;;;10.33;9.00;;;;;;;;;;5099617;28;20479;-58
2023/03/19 04:52:30;;;;;;;11.60;10.17;;;;;;;;;;5101100;28;20510;-60
2023/03/19 04:54:56;;;;;;;12.90;10.63;;;;;;;;;;5092550;28;20456;-62
2023/03/19 04:57:22;;;;;;;10.50;9.10;;;;;;;;;;5096775;28;21098;-61
2023/03/19 04:59:49;;;;;;;11.80;9.77;;;;;;;;;;5095054;28;20925;-61
2023/03/19 05:02:17;;;;;;;10.57;9.50;;;;;;;;;;5098169;28;20536;-61
2023/03/19 05:04:44;;;;;;;12.53;10.80;;;;;;;;;;5092351;28;20760;-59
2023/03/19 05:07:10;;;;;;;13.03;10.53;;;;;;;;;;5093980;28;20487;-61
2023/03/19 05:09:37;;;;;;;11.73;9.27;;;;;;;;;;5096922;28;20474;-60
2023/03/19 05:12:04;;;;;;;11.67;9.80;;;;;;;;;;5088043;28;20483;-61
2023/03/19 05:14:30;;;;;;;12.83;10.77;;;;;;;;;;5092249;28;20491;-61
2023/03/19 05:16:57;;;;;;;12.30;10.80;;;;;;;;;;5101891;28;20498;-61
2023/03/19 05:19:25;;;;;;;14.23;11.20;;;;;;;;;;5092054;28;21061;-59
2023/03/19 05:21:52;;;;;;;18.33;12.83;;;;;;;;;;5086332;28;20506;-59
2023/03/19 05:24:18;;;;;;;14.00;11.90;;;;;;;;;;5097764;28;20479;-61
2023/03/19 05:26:45;;;;;;;12.33;11.13;;;;;;;;;;5099941;28;20502;-61
2023/03/19 05:29:13;;;;;;;17.60;13.10;;;;;;;;;;5094364;28;20458;-59
2023/03/19 05:31:39;;;;;;;15.73;11.73;;;;;;;;;;5095055;28;20512;-59
2023/03/19 05:34:06;;;;;;;17.40;13.17;;;;;;;;;;5098289;28;20460;-62
2023/03/19 05:36:34;;;;;;;12.10;10.90;;;;;;;;;;5085052;28;20480;-62
2023/03/19 05:39:02;;;;;;;14.10;12.17;;;;;;;;;;5101677;28;20502;-62
2023/03/19 05:41:29;;;;;;;17.03;12.10;;;;;;;;;;5098501;28;20476;-61
2023/03/19 05:43:55;;;;;;;14.20;11.20;;;;;;;;;;5092154;28;20448;-61
2023/03/19 05:46:23;;;;;;;11.80;9.90;;;;;;;;;;5098917;28;20487;-62
2023/03/19 05:48:50;;;;;;;12.73;10.07;;;;;;;;;;5096312;28;20459;-60
2023/03/19 05:51:16;;;;;;;14.40;12.33;;;;;;;;;;5083449;28;20473;-62
2023/03/19 05:53:44;;;;;;;17.40;12.50;;;;;;;;;;5099807;28;20477;-60
2023/03/19 05:56:11;;;;;;;15.30;12.50;;;;;;;;;;5100987;28;20717;-59
2023/03/19 05:58:37;;;;;;;15.73;12.23;;;;;;;;;;5093682;28;20500;-60
2023/03/19 06:01:04;;;;;;;13.43;11.60;;;;;;;;;;5093478;28;20754;-61
2023/03/19 06:03:31;;;;;;;15.57;13.60;;;;;;;;;;5096019;28;20884;-62
2023/03/19 06:05:57;;;;;;;13.77;12.27;;;;;;;;;;5100081;28;20530;-60
2023/03/19 06:08:24;;;;;;;15.20;13.50;;;;;;;;;;5088987;28;20440;-59
2023/03/19 06:11:03;;;;;;;17.37;13.70;;;;;;;;;;5094480;28;20503;-60
2023/03/19 06:13:29;;;;;;;16.20;14.20;;;;;;;;;;5096968;28;20448;-62
2023/03/19 06:15:56;;;;;;;18.70;15.80;;;;;;;;;;5092687;28;20464;-60
2023/03/19 06:18:22;;;;;;;17.10;15.30;;;;;;;;;;5095957;28;20492;-61
2023/03/19 06:20:49;;;;;;;15.83;14.20;;;;;;;;;;5099524;28;20501;-64
2023/03/19 06:23:15;;;;;;;16.80;14.30;;;;;;;;;;5090156;28;20448;-64
2023/03/19 06:25:42;;;;;;;16.30;13.93;;;;;;;;;;5083914;28;21048;-65
2023/03/19 06:28:10;;;;;;;11.17;9.93;;;;;;;;;;5099673;28;20479;-62
2023/03/19 06:30:36;;;;;;;11.93;10.73;;;;;;;;;;5098896;28;20483;-62
2023/03/19 06:33:03;;;;;;;8.60;7.90;;;;;;;;;;5091708;28;20450;-62
2023/03/19 06:35:30;;;;;;;10.90;8.43;;;;;;;;;;5095129;28;20466;-64
2023/03/19 06:37:56;;;;;;;11.23;9.33;;;;;;;;;;5097669;28;20451;-65
2023/03/19 06:40:23;;;;;;;8.70;7.90;;;;;;;;;;5093136;28;20481;-64
2023/03/19 06:42:49;;;;;;;7.63;6.90;;;;;;;;;;5096105;28;20455;-65
2023/03/19 06:45:18;;;;;;;9.73;7.50;;;;;;;;;;5095781;28;20553;-62
2023/03/19 06:47:45;;;;;;;7.73;7.00;;;;;;;;;;5095626;28;20507;-70
2023/03/19 06:50:12;;;;;;;7.70;7.00;;;;;;;;;;5091944;28;20520;-72
2023/03/19 06:52:38;;;;;;;9.20;8.37;;;;;;;;;;5082770;28;21017;-72
2023/03/19 06:55:06;;;;;;;8.57;6.97;;;;;;;;;;5096892;28;20475;-69
2023/03/19 06:57:33;;;;;;;7.67;6.87;;;;;;;;;;5097355;28;20683;-72
2023/03/19 07:00:00;;;;;;;9.30;8.40;;;;;;;;;;5091326;28;20467;-64
2023/03/19 07:02:28;;;;;;;6.00;5.50;;;;;;;;;;5091480;28;20550;-67
2023/03/19 07:04:55;;;;;;;7.90;6.20;;;;;;;;;;5091991;28;20514;-66
2023/03/19 07:07:21;;;;;;;16.33;14.97;;;;;;;;;;5095358;28;20470;-67
2023/03/19 07:09:55;;;;;;;6.40;5.70;;;;;;;;;;5097052;28;20461;-66
2023/03/19 07:12:21;;;;;;;9.40;8.50;;;;;;;;;;5091183;28;20475;-66
2023/03/19 07:14:48;;;;;;;7.77;6.60;;;;;;;;;;5094920;28;20484;-67
2023/03/19 07:17:14;;;;;;;11.60;6.60;;;;;;;;;;5092927;28;20506;-66
2023/03/19 07:19:42;;;;;;;9.57;7.60;;;;;;;;;;5101207;28;20462;-67
2023/03/19 07:22:11;;;;;;;9.43;7.17;;;;;;;;;;5099894;28;20839;-66
2023/03/19 07:24:38;;;;;;;11.47;9.17;;;;;;;;;;5091783;28;20522;-65
2023/03/19 07:27:04;;;;;;;11.87;8.00;;;;;;;;;;5087163;28;20549;-69
2023/03/19 07:29:32;;;;;;;9.40;7.80;;;;;;;;;;5095818;28;20455;-69
2023/03/19 07:31:59;;;;;;;8.97;7.50;;;;;;;;;;5088735;28;20517;-67
2023/03/19 07:34:26;;;;;;;10.37;9.43;;;;;;;;;;5096785;28;20554;-68
2023/03/19 07:36:54;;;;;;;9.57;7.47;;;;;;;;;;5096678;28;20471;-69
2023/03/19 07:39:20;;;;;;;7.93;7.23;;;;;;;;;;5100214;28;20444;-69
2023/03/19 07:41:48;;;;;;;8.20;6.90;;;;;;;;;;5097807;28;20506;-67
2023/03/19 07:44:15;;;;;;;8.77;7.10;;;;;;;;;;5093845;28;20463;-69
2023/03/19 07:46:42;;;;;;;11.03;7.80;;;;;;;;;;5093272;28;20515;-67
2023/03/19 07:49:08;;;;;;;16.67;9.30;;;;;;;;;;5098015;28;20472;-70
2023/03/19 07:51:35;;;;;;;6.77;5.43;;;;;;;;;;5095955;28;21068;-70
2023/03/19 07:54:03;;;;;;;6.27;4.70;;;;;;;;;;5100421;28;20439;-69
2023/03/19 07:56:30;;;;;;;6.20;2.97;;;;;;;;;;5112410;28;20500;-69
2023/03/19 07:58:56;;;;;;;3.93;3.20;;;;;;;;;;5099016;28;20488;-69
2023/03/19 08:01:23;;;;;;;3.40;2.67;;;;;;;;;;5098184;28;20512;-70
2023/03/19 08:03:50;;;;;;;5.23;2.87;;;;;;;;;;5095907;28;20470;-67
2023/03/19 08:06:16;;;;;;;4.20;2.63;;;;;;;;;;5101321;28;20504;-69
2023/03/19 08:08:43;;;;;;;6.70;2.70;;;;;;;;;;5093893;28;20505;-69
2023/03/19 08:11:11;;;;;;;3.30;2.83;;;;;;;;;;5094424;28;20485;-66
2023/03/19 08:13:37;;;;;;;3.63;3.20;;;;;;;;;;5093755;28;20454;-67
2023/03/19 08:16:04;;;;;;;5.17;3.30;;;;;;;;;;5089549;28;20482;-69
2023/03/19 08:18:31;;;;;;;4.37;3.33;;;;;;;;;;5101690;28;20447;-69
2023/03/19 08:20:58;;;;;;;5.00;3.13;;;;;;;;;;5093808;28;21062;-67
2023/03/19 08:23:25;;;;;;;3.87;2.90;;;;;;;;;;5101547;28;20450;-69
2023/03/19 08:25:52;;;;;;;4.80;2.97;;;;;;;;;;5093288;28;20930;-68
2023/03/19 08:28:20;;;;;;;4.77;3.10;;;;;;;;;;5091126;28;20452;-70
2023/03/19 08:30:46;;;;;;;5.63;2.77;;;;;;;;;;5091985;28;20505;-71
2023/03/19 08:33:13;;;;;;;4.40;2.77;;;;;;;;;;5100690;28;20485;-66
2023/03/19 08:35:40;;;;;;;3.97;2.90;;;;;;;;;;5088950;28;20980;-71
2023/03/19 08:38:06;;;;;;;3.50;2.37;;;;;;;;;;5102427;28;20443;-70
2023/03/19 08:40:33;;;;;;;4.97;2.70;;;;;;;;;;5098584;28;21049;-70
2023/03/19 08:43:00;;;;;;;4.00;2.37;;;;;;;;;;5103599;28;20474;-70
2023/03/19 08:45:28;;;;;;;4.37;2.47;;;;;;;;;;5088683;28;20467;-68
2023/03/19 08:47:54;;;;;;;6.00;2.60;;;;;;;;;;5099220;28;20451;-68
2023/03/19 08:50:21;;;;;;;3.57;2.27;;;;;;;;;;5094591;28;20472;-68
2023/03/19 08:52:47;;;;;;;2.60;2.33;;;;;;;;;;5093659;28;20460;-70
2023/03/19 08:55:14;;;;;;;4.00;2.87;;;;;;;;;;5101893;28;20504;-70
2023/03/19 08:57:41;;;;;;;5.60;2.30;;;;;;;;;;5105941;28;20463;-69
2023/03/19 09:00:08;;;;;;;7.20;2.50;;;;;;;;;;5095601;28;20496;-69
2023/03/19 09:02:36;;;;;;;5.13;2.50;;;;;;;;;;5100113;28;20451;-69
2023/03/19 09:05:03;;;;;;;3.30;2.70;;;;;;;;;;5095945;28;20452;-70
2023/03/19 09:07:29;;;;;;;3.33;2.33;;;;;;;;;;5094003;28;20579;-68
2023/03/19 09:09:56;;;;;;;8.47;2.73;;;;;;;;;;5091302;28;20933;-70
2023/03/19 09:12:22;;;;;;;8.73;3.10;;;;;;;;;;5089453;28;20484;-66
2023/03/19 09:14:49;;;;;;;9.17;3.47;;;;;;;;;;5094668;28;20455;-67
2023/03/19 09:17:17;;;;;;;5.23;3.20;;;;;;;;;;5088375;28;20889;-69
2023/03/19 09:19:45;;;;;;;5.90;2.80;;;;;;;;;;5093238;28;20458;-70
2023/03/19 09:22:11;;;;;;;4.00;2.83;;;;;;;;;;5090833;28;20483;-71
2023/03/19 09:24:38;;;;;;;6.63;3.67;;;;;;;;;;5100220;28;20643;-70
2023/03/19 09:27:05;;;;;;;4.43;4.03;;;;;;;;;;5093853;28;20482;-71
2023/03/19 09:29:31;;;;;;;3.40;3.10;;;;;;;;;;5089859;28;20451;-69
2023/03/19 09:31:59;;;;;;;5.53;3.30;;;;;;;;;;5094003;28;20490;-70
2023/03/19 09:34:25;;;;;;;5.40;3.80;;;;;;;;;;5091405;28;20462;-69
2023/03/19 09:36:54;;;;;;;4.40;3.60;;;;;;;;;;5097672;28;20471;-69
2023/03/19 09:39:20;;;;;;;4.70;3.73;;;;;;;;;;5098000;28;20444;-69
2023/03/19 09:41:58;;;;;;;5.00;3.77;;;;;;;;;;5098199;28;20532;-69
2023/03/19 09:44:27;;;;;;;5.40;4.80;;;;;;;;;;5096725;28;20481;-74
2023/03/19 09:46:56;;;;;;;7.90;3.80;;;;;;;;;;5097011;28;20561;-70
2023/03/19 09:50:06;;;;;;;6.43;5.10;;;;;;;;;;5093526;27;20566;-66
2023/03/19 09:52:41;;;;;;;6.60;3.40;;;;;;;;;;5095722;28;20472;-66
2023/03/19 09:55:13;;;;;;;6.97;4.53;;;;;;;;;;5099860;28;20468;-69
2023/03/19 09:57:39;;;;;;;5.00;4.17;;;;;;;;;;5103045;28;20956;-69
2023/03/19 10:00:18;;;;;;;5.60;4.00;;;;;;;;;;5085133;27;20508;-67
2023/03/19 10:02:50;;;;;;;5.20;3.50;;;;;;;;;;5084631;28;20448;-67
2023/03/19 10:05:22;;;;;;;9.90;4.33;;;;;;;;;;5055232;28;20487;-69
2023/03/19 10:08:04;;;;;;;5.80;3.77;;;;;;;;;;5044909;28;20469;-70
2023/03/19 10:10:45;;;;;;;8.47;3.93;;;;;;;;;;5051954;28;20489;-77
2023/03/19 10:13:15;;;;;;;5.40;4.30;;;;;;;;;;5046188;28;20458;-76
2023/03/19 10:15:43;;;;;;;5.17;3.70;;;;;;;;;;5059225;28;20506;-65
2023/03/19 10:18:12;;;;;;;5.37;3.90;;;;;;;;;;5059015;28;20797;-65
2023/03/19 10:20:53;;;;;;;4.80;3.60;;;;;;;;;;5060846;28;20532;-65
2023/03/19 10:23:26;;;;;;;4.80;3.73;;;;;;;;;;5072124;28;20865;-66
2023/03/19 10:25:54;;;;;;;5.00;4.17;;;;;;;;;;5066237;28;20548;-66
2023/03/19 10:28:21;;;;;;;5.00;4.50;;;;;;;;;;5051822;28;20509;-67
2023/03/19 10:30:50;;;;;;;6.43;5.30;;;;;;;;;;5045012;28;20477;-66
2023/03/19 10:33:21;;;;;;;8.63;5.20;;;;;;;;;;5053494;28;20874;-67
2023/03/19 10:35:49;;;;;;;8.30;6.10;;;;;;;;;;5054803;28;20507;-67
2023/03/19 10:38:19;;;;;;;5.80;5.20;;;;;;;;;;5055546;28;20480;-66
2023/03/19 10:40:51;;;;;;;9.20;6.77;;;;;;;;;;5051158;28;20477;-66
2023/03/19 10:43:20;;;;;;;7.30;6.53;;;;;;;;;;5055595;28;20481;-67
2023/03/19 10:45:48;;;;;;;6.57;5.97;;;;;;;;;;5052860;28;20477;-66
2023/03/19 10:48:16;;;;;;;6.60;5.33;;;;;;;;;;5055937;28;20532;-66
2023/03/19 10:50:45;;;;;;;6.80;5.03;;;;;;;;;;5058584;28;20472;-67
2023/03/19 10:53:25;;;;;;;6.60;4.87;;;;;;;;;;5075654;28;20460;-70
2023/03/19 10:55:54;;;;;;;8.13;4.63;;;;;;;;;;5064688;28;20520;-70
2023/03/19 10:58:23;;;;;;;4.47;4.07;;;;;;;;;;5051371;28;20513;-70
2023/03/19 11:00:55;;;;;;;5.63;4.20;;;;;;;;;;5035968;28;20473;-67
2023/03/19 11:03:28;;;;;;;4.40;4.00;;;;;;;;;;5027895;28;20495;-66
2023/03/19 11:06:02;;;;;;;4.70;4.30;;;;;;;;;;5048405;28;20996;-67
2023/03/19 11:08:29;;;;;;;4.63;3.90;;;;;;;;;;5061529;28;20446;-67
2023/03/19 11:10:57;;;;;;;4.40;3.70;;;;;;;;;;5060542;28;20484;-68
2023/03/19 11:13:25;;;;;;;6.80;3.53;;;;;;;;;;5058667;28;20874;-66
2023/03/19 11:15:52;;;;;;;4.23;3.83;;;;;;;;;;5063749;28;20919;-68
2023/03/19 11:18:20;;;;;;;4.40;3.97;;;;;;;;;;5064884;28;20991;-68
2023/03/19 11:20:49;;;;;;;4.90;3.90;;;;;;;;;;5052722;28;20481;-67
2023/03/19 11:23:17;;;;;;;4.50;4.10;;;;;;;;;;5061441;28;20460;-66
2023/03/19 11:25:47;;;;;;;5.57;4.40;;;;;;;;;;5061573;28;20473;-68
2023/03/19 11:28:16;;;;;;;5.43;4.50;;;;;;;;;;5056933;28;20445;-68
2023/03/19 11:30:48;;;;;;;6.37;4.17;;;;;;;;;;5060020;28;20568;-68
2023/03/19 11:33:27;;;;;;;5.40;4.03;;;;;;;;;;5049524;28;20561;-67
2023/03/19 11:35:58;;;;;;;6.00;5.17;;;;;;;;;;5053645;28;20512;-67
2023/03/19 11:38:28;;;;;;;5.57;5.07;;;;;;;;;;5060088;28;20513;-66
2023/03/19 11:41:00;;;;;;;6.33;5.73;;;;;;;;;;5057629;28;20569;-67
2023/03/19 11:43:46;;;;;;;6.93;6.30;;;;;;;;;;5058820;28;20509;-67
2023/03/19 11:46:19;;;;;;;7.30;6.10;;;;;;;;;;5057532;28;20496;-67
2023/03/19 11:48:59;;;;;;;6.70;6.10;;;;;;;;;;5062046;28;20481;-66
2023/03/19 11:51:29;;;;;;;7.30;6.60;;;;;;;;;;5058063;28;20527;-66
2023/03/19 11:54:01;;;;;;;7.73;7.10;;;;;;;;;;5058041;28;20693;-66
2023/03/19 11:56:32;;;;;;;7.33;6.60;;;;;;;;;;5060948;28;20491;-67
2023/03/19 11:59:29;;;;;;;5.67;5.03;;;;;;;;;;5065229;28;20494;-69
2023/03/19 12:02:12;;;;;;;5.40;4.60;;;;;;;;;;4972598;28;21025;-69
2023/03/19 12:05:02;;;;;;;4.87;4.40;;;;;;;;;;5052704;28;20457;-75
2023/03/19 12:07:32;;;;;;;4.97;4.57;;;;;;;;;;5041739;28;20512;-74
2023/03/19 12:10:03;;;;;;;5.40;4.53;;;;;;;;;;5052996;28;20488;-75
2023/03/19 12:12:33;;;;;;;4.60;4.20;;;;;;;;;;5062238;28;20509;-75
2023/03/19 12:15:07;;;;;;;4.40;4.03;;;;;;;;;;5057740;28;20458;-76
2023/03/19 12:17:40;;;;;;;4.60;4.20;;;;;;;;;;5058202;28;20469;-76
2023/03/19 12:20:20;;;;;;;5.93;4.57;;;;;;;;;;5059287;28;20492;-72
2023/03/19 12:22:51;;;;;;;5.10;3.97;;;;;;;;;;5058190;28;20449;-77
2023/03/19 12:25:23;;;;;;;4.70;4.30;;;;;;;;;;5058712;28;20456;-77
2023/03/19 12:27:54;;;;;;;4.77;4.37;;;;;;;;;;5054446;28;20444;-77
2023/03/19 12:30:25;;;;;;;4.63;4.10;;;;;;;;;;5053672;28;20464;-76
2023/03/19 12:33:07;;;;;;;7.63;4.27;;;;;;;;;;5056315;28;20969;-77
2023/03/19 12:35:35;;;;;;;4.53;4.13;;;;;;;;;;5054927;28;20464;-76
2023/03/19 12:38:05;;;;;;;5.50;5.00;;;;;;;;;;5047836;28;20478;-77
2023/03/19 12:40:35;;;;;;;5.73;5.13;;;;;;;;;;5047352;28;20539;-77
2023/03/19 12:43:04;;;;;;;8.80;6.07;;;;;;;;;;5057027;28;20462;-76
2023/03/19 12:45:32;;;;;;;6.90;5.90;;;;;;;;;;5057960;28;20503;-76
2023/03/19 12:48:02;;;;;;;6.60;6.00;;;;;;;;;;5058726;28;20524;-77
2023/03/19 12:50:30;;;;;;;6.57;5.97;;;;;;;;;;5058010;28;20962;-77
2023/03/19 12:52:58;;;;;;;6.57;6.00;;;;;;;;;;5059825;28;20522;-77
2023/03/19 12:55:35;;;;;;;7.20;6.50;;;;;;;;;;5055594;28;20522;-76
2023/03/19 12:58:03;;;;;;;7.33;6.57;;;;;;;;;;5052462;28;20473;-77
2023/03/19 13:00:34;;;;;;;7.90;6.70;;;;;;;;;;5049049;28;20492;-75
2023/03/19 13:03:04;;;;;;;7.80;7.10;;;;;;;;;;5056687;28;20453;-76
2023/03/19 13:05:34;;;;;;;8.47;6.90;;;;;;;;;;5052799;28;20789;-76
2023/03/19 13:08:05;;;;;;;8.43;7.00;;;;;;;;;;5057312;28;20449;-76
2023/03/19 13:10:31;;;;;;;7.93;7.17;;;;;;;;;;5048177;28;20469;-77
2023/03/19 13:12:58;;;;;;;7.87;7.17;;;;;;;;;;5054505;28;20456;-76
2023/03/19 13:15:29;;;;;;;8.03;7.00;;;;;;;;;;5048413;28;20454;-77
2023/03/19 13:18:02;;;;;;;6.30;5.70;;;;;;;;;;5049414;28;20850;-77
2023/03/19 13:20:34;;;;;;;7.10;6.40;;;;;;;;;;5055567;28;20974;-76
2023/03/19 13:23:02;;;;;;;7.77;6.97;;;;;;;;;;5052607;28;20481;-77
2023/03/19 13:25:31;;;;;;;8.23;7.40;;;;;;;;;;5051624;28;20472;-76
2023/03/19 13:27:59;;;;;;;7.40;6.70;;;;;;;;;;5053186;28;20928;-77
2023/03/19 13:30:26;;;;;;;7.30;6.60;;;;;;;;;;5051653;28;20450;-77
2023/03/19 13:33:00;;;;;;;7.90;7.10;;;;;;;;;;5054438;28;20454;-77
2023/03/19 13:35:30;;;;;;;10.30;7.50;;;;;;;;;;5047100;28;21038;-78
2023/03/19 13:37:59;;;;;;;8.33;7.53;;;;;;;;;;5057975;28;20456;-78
2023/03/19 13:40:41;;;;;;;7.93;7.13;;;;;;;;;;5059141;28;20505;-79
2023/03/19 13:43:21;;;;;;;9.80;7.40;;;;;;;;;;5056701;28;20455;-78
2023/03/19 13:45:51;;;;;;;8.30;7.50;;;;;;;;;;5055824;28;20544;-78
2023/03/19 13:48:33;;;;;;;11.50;8.00;;;;;;;;;;5057760;28;20519;-77
2023/03/19 13:51:01;;;;;;;7.57;6.80;;;;;;;;;;5055024;28;20560;-77
2023/03/19 13:53:38;;;;;;;9.93;7.57;;;;;;;;;;5055595;28;20505;-78
2023/03/19 13:56:09;;;;;;;8.10;7.20;;;;;;;;;;5052987;28;20478;-77
2023/03/19 13:58:51;;;;;;;8.20;6.73;;;;;;;;;;5050898;28;20459;-78
2023/03/19 14:01:35;;;;;;;7.80;7.00;;;;;;;;;;5052549;28;21010;-76
2023/03/19 14:04:02;;;;;;;8.30;7.27;;;;;;;;;;5051699;28;20480;-78
2023/03/19 14:06:32;;;;;;;8.53;7.37;;;;;;;;;;5055306;28;20480;-78
2023/03/19 14:08:59;;;;;;;10.13;8.17;;;;;;;;;;5048415;28;20896;-78
2023/03/19 14:11:29;;;;;;;9.17;7.03;;;;;;;;;;5055005;28;20477;-77
2023/03/19 14:14:00;;;;;;;10.37;7.00;;;;;;;;;;5053919;28;20488;-78
2023/03/19 14:16:29;;;;;;;10.67;7.70;;;;;;;;;;5055779;28;20594;-78
2023/03/19 14:18:56;;;;;;;9.20;7.50;;;;;;;;;;5050449;28;20527;-76
2023/03/19 14:21:32;;;;;;;9.73;7.73;;;;;;;;;;5050713;28;20520;-78
2023/03/19 14:24:18;;;;;;;12.40;7.63;;;;;;;;;;5054885;28;20511;-77
2023/03/19 14:26:46;;;;;;;12.00;7.93;;;;;;;;;;5048287;28;21021;-77
2023/03/19 14:29:14;;;;;;;10.00;8.33;;;;;;;;;;5048135;28;20478;-77
2023/03/19 14:31:42;;;;;;;12.27;8.03;;;;;;;;;;5051840;28;20485;-78
2023/03/19 14:34:16;;;;;;;12.97;7.67;;;;;;;;;;5056320;28;20469;-78
2023/03/19 14:36:45;;;;;;;8.97;7.23;;;;;;;;;;5055018;28;20563;-78
2023/03/19 14:39:16;;;;;;;9.67;7.83;;;;;;;;;;5051801;28;20454;-74
2023/03/19 14:41:44;;;;;;;12.20;8.00;;;;;;;;;;5046638;28;20531;-75